Time;durP1;ratioP1;P1;durP2;ratioP2;P2;SDS_P1;SDS_P2;PMS_P1;PMS_P2;Temp;Humidity;BMP_temperature;BMP_pressure;BME280_temperature;BME280_humidity;BME280_pressure;Samples;Min_cycle;Max_cycle;Signal;HPM_P1;HPM_P2
2021/06/06 00:01:41;;;;;;;3.88;2.40;;;;;;;11.12;72.83;93721.44;5090828;28;20031;-46
2021/06/06 00:04:13;;;;;;;4.95;2.80;;;;;;;11.01;72.64;93718.22;5093176;28;20051;-46
2021/06/06 00:06:39;;;;;;;2.88;2.58;;;;;;;10.88;72.77;93716.31;5093659;28;20020;-46
2021/06/06 00:09:09;;;;;;;3.67;2.75;;;;;;;10.97;72.50;93717.84;5091899;28;20081;-45
2021/06/06 00:11:39;;;;;;;2.20;1.90;;;;;;;11.00;71.38;93716.75;5093492;28;20055;-44
2021/06/06 00:14:07;;;;;;;3.53;2.28;;;;;;;11.12;70.84;93706.88;5092884;28;20554;-43
2021/06/06 00:16:36;;;;;;;1.45;1.35;;;;;;;11.17;70.27;93708.72;5093439;28;20024;-40
2021/06/06 00:19:02;;;;;;;2.17;1.70;;;;;;;11.18;69.85;93702.66;5092695;28;20044;-46
2021/06/06 00:21:28;;;;;;;3.50;2.20;;;;;;;11.21;69.81;93707.09;5092890;28;20032;-44
2021/06/06 00:23:55;;;;;;;1.85;1.73;;;;;;;11.05;70.65;93691.72;5092705;28;20112;-43
2021/06/06 00:26:20;;;;;;;2.33;2.10;;;;;;;11.22;70.14;93710.56;5092924;28;20032;-41
2021/06/06 00:28:46;;;;;;;2.20;2.00;;;;;;;11.10;69.81;93706.66;5092803;28;20436;-46
2021/06/06 00:31:12;;;;;;;2.15;1.80;;;;;;;11.13;69.97;93700.78;5092261;28;20016;-40
2021/06/06 00:33:38;;;;;;;2.45;2.08;;;;;;;11.10;70.04;93704.66;5092954;28;20566;-41
2021/06/06 00:36:05;;;;;;;2.67;2.03;;;;;;;10.97;70.99;93702.00;5092864;28;20027;-40
2021/06/06 00:38:30;;;;;;;2.75;2.10;;;;;;;11.03;70.92;93701.84;5092418;28;20039;-43
2021/06/06 00:40:58;;;;;;;2.50;2.22;;;;;;;10.85;70.76;93694.59;5092272;28;20020;-39
2021/06/06 00:43:24;;;;;;;2.20;1.85;;;;;;;10.81;70.68;93699.69;5092786;28;20034;-43
2021/06/06 00:45:50;;;;;;;3.35;2.33;;;;;;;10.81;70.07;93697.69;5092681;28;20422;-41
2021/06/06 00:48:16;;;;;;;2.25;2.00;;;;;;;10.81;70.55;93696.94;5092690;28;20046;-42
2021/06/06 00:50:45;;;;;;;2.25;2.05;;;;;;;10.76;70.23;93708.91;5092653;28;20475;-47
2021/06/06 00:53:20;;;;;;;4.07;2.25;;;;;;;10.72;70.44;93687.13;5090283;28;20093;-49
2021/06/06 00:55:45;;;;;;;5.10;2.15;;;;;;;10.69;70.86;93693.75;5070926;28;20020;-45
2021/06/06 00:58:13;;;;;;;2.45;1.90;;;;;;;10.60;71.25;93705.28;5071967;28;20029;-50
2021/06/06 01:00:41;;;;;;;4.95;2.85;;;;;;;10.49;70.74;93680.75;5072296;28;20028;-46
2021/06/06 01:03:07;;;;;;;2.97;2.13;;;;;;;10.45;72.27;93672.81;5072167;28;20412;-46
2021/06/06 01:05:46;;;;;;;2.90;2.65;;;;;;;10.33;73.81;93696.47;5071868;28;20068;-44
2021/06/06 01:08:15;;;;;;;3.88;2.65;;;;;;;10.28;73.68;93689.06;5072075;28;20722;-46
2021/06/06 01:10:41;;;;;;;4.25;3.30;;;;;;;10.31;74.20;93678.97;5070758;28;20032;-48
2021/06/06 01:13:21;;;;;;;3.03;2.45;;;;;;;10.36;74.18;93703.66;5071781;28;20121;-46
2021/06/06 01:15:52;;;;;;;3.60;2.70;;;;;;;10.33;72.67;93684.69;5070502;28;20020;-46
2021/06/06 01:18:25;;;;;;;4.20;2.40;;;;;;;10.25;72.77;93673.59;5070360;28;20044;-46
2021/06/06 01:20:57;;;;;;;2.83;2.15;;;;;;;10.22;73.73;93693.25;5071352;28;20499;-44
2021/06/06 01:23:27;;;;;;;3.00;2.60;;;;;;;10.24;73.51;93671.38;5071542;28;20107;-45
2021/06/06 01:25:59;;;;;;;3.95;2.92;;;;;;;10.15;73.94;93677.38;5070489;28;20028;-45
2021/06/06 01:28:44;;;;;;;3.85;2.78;;;;;;;10.13;74.49;93700.00;5070197;28;20601;-44
2021/06/06 01:31:12;;;;;;;4.15;2.35;;;;;;;10.13;73.79;93682.69;5081830;28;20100;-45
2021/06/06 01:33:44;;;;;;;2.75;2.45;;;;;;;10.17;73.18;93672.81;5081356;28;20514;-44
2021/06/06 01:36:16;;;;;;;4.57;3.10;;;;;;;9.86;74.90;93671.03;5070217;28;20030;-46
2021/06/06 01:38:48;;;;;;;3.67;2.47;;;;;;;9.90;75.10;93677.69;5091578;28;20024;-42
2021/06/06 01:41:17;;;;;;;4.47;2.90;;;;;;;10.00;74.68;93672.47;5091508;28;20487;-44
2021/06/06 01:43:49;;;;;;;5.97;3.55;;;;;;;9.90;75.03;93666.69;5090504;28;20031;-43
2021/06/06 01:46:19;;;;;;;4.68;3.25;;;;;;;9.94;74.37;93661.56;5090020;28;20044;-45
2021/06/06 01:48:46;;;;;;;3.00;2.38;;;;;;;10.01;74.30;93668.41;5090262;28;20056;-45
2021/06/06 01:51:17;;;;;;;3.55;2.53;;;;;;;10.10;73.82;93653.41;5090124;28;20427;-42
2021/06/06 01:53:45;;;;;;;3.63;2.67;;;;;;;10.09;73.53;93660.22;5090549;28;20032;-42
2021/06/06 01:56:16;;;;;;;8.82;3.53;;;;;;;10.06;74.39;93658.53;5090066;28;20031;-44
2021/06/06 01:58:41;;;;;;;3.28;2.97;;;;;;;10.03;73.56;93651.34;5090100;28;20093;-43
2021/06/06 02:01:12;;;;;;;4.32;2.40;;;;;;;10.02;73.84;93650.59;5090226;28;20488;-47
2021/06/06 02:03:38;;;;;;;4.90;3.22;;;;;;;9.88;74.26;93657.44;5091214;28;20031;-48
2021/06/06 02:06:05;;;;;;;4.50;2.08;;;;;;;9.90;74.53;93652.13;5090752;28;20757;-44
2021/06/06 02:08:33;;;;;;;3.22;2.55;;;;;;;9.91;73.29;93648.84;5090018;28;20028;-46
2021/06/06 02:11:26;;;;;;;3.07;2.77;;;;;;;9.97;73.68;93645.94;5089328;28;20024;-45
2021/06/06 02:13:55;;;;;;;3.97;3.15;;;;;;;9.99;73.70;93654.41;5080788;28;20035;-44
2021/06/06 02:16:24;;;;;;;2.13;1.98;;;;;;;9.96;73.12;93644.47;5089450;28;20032;-44
2021/06/06 02:18:49;;;;;;;;;;;;;;;9.99;73.05;93645.41;5089873;28;20052;-43
2021/06/06 02:21:16;;;;;;;3.63;2.60;;;;;;;10.01;73.09;93651.84;5090557;28;20367;-48
2021/06/06 02:23:43;;;;;;;11.52;3.35;;;;;;;9.84;73.14;93648.78;5090109;28;20028;-48
2021/06/06 02:26:11;;;;;;;4.30;2.95;;;;;;;9.87;73.30;93653.94;5089515;28;20449;-47
2021/06/06 02:28:41;;;;;;;3.17;2.57;;;;;;;9.76;73.47;93653.50;5090759;28;20029;-46
2021/06/06 02:31:16;;;;;;;5.35;3.00;;;;;;;9.53;74.18;93642.25;5082746;28;20876;-45
2021/06/06 02:33:50;;;;;;;4.35;3.10;;;;;;;9.50;73.74;93643.34;5068923;28;20740;-46
2021/06/06 02:36:17;;;;;;;9.27;2.50;;;;;;;9.62;73.30;93643.81;5069069;28;20025;-45
2021/06/06 02:39:14;;;;;;;3.55;2.80;;;;;;;9.42;73.94;93644.56;5087838;28;20024;-45
2021/06/06 02:41:54;;;;;;;1.90;1.80;;;;;;;9.26;73.63;93643.66;5081686;28;20047;-46
2021/06/06 02:44:27;;;;;;;1.70;1.60;;;;;;;9.46;72.66;93639.44;5089108;28;20092;-46
2021/06/06 02:46:52;;;;;;;2.53;2.22;;;;;;;9.45;72.51;93644.22;5076713;28;20419;-46
2021/06/06 02:49:21;;;;;;;2.58;2.22;;;;;;;9.34;72.85;93644.47;5069025;28;20020;-45
2021/06/06 02:51:52;;;;;;;3.97;2.17;;;;;;;9.52;73.04;93637.28;5068207;28;20499;-45
2021/06/06 02:54:26;;;;;;;4.18;3.15;;;;;;;9.54;72.87;93637.50;5067816;28;20036;-46
2021/06/06 02:56:55;;;;;;;5.63;2.42;;;;;;;9.55;72.32;93636.22;5068010;28;20024;-46
2021/06/06 02:59:41;;;;;;;6.22;3.60;;;;;;;9.26;73.38;93618.88;5069039;28;20098;-45
2021/06/06 03:02:09;;;;;;;7.70;4.22;;;;;;;9.20;74.00;93634.03;5067881;28;20068;-46
2021/06/06 03:04:37;;;;;;;4.05;2.42;;;;;;;9.12;74.39;93625.69;5069390;28;20028;-44
2021/06/06 03:07:08;;;;;;;3.00;2.03;;;;;;;9.23;73.94;93635.72;5068379;28;20024;-46
2021/06/06 03:09:34;;;;;;;9.38;2.80;;;;;;;9.47;72.92;93625.13;5068415;28;20028;-45
2021/06/06 03:12:05;;;;;;;3.72;2.58;;;;;;;9.47;72.53;93625.13;5067896;28;20558;-46
2021/06/06 03:14:32;;;;;;;7.28;2.53;;;;;;;9.52;72.40;93637.28;5069334;28;20671;-51
2021/06/06 03:16:57;;;;;;;4.50;2.85;;;;;;;9.56;72.57;93624.66;5068194;28;20024;-47
2021/06/06 03:19:25;;;;;;;4.53;3.10;;;;;;;9.57;72.62;93622.66;5068692;28;20072;-47
2021/06/06 03:21:51;;;;;;;4.20;2.67;;;;;;;9.58;72.65;93630.38;5068124;28;20492;-45
2021/06/06 03:24:23;;;;;;;2.65;2.35;;;;;;;9.30;73.03;93615.75;5087787;28;20027;-46
2021/06/06 03:26:50;;;;;;;2.40;1.90;;;;;;;9.23;73.14;93622.69;5088054;28;20024;-44
2021/06/06 03:29:21;;;;;;;6.05;2.55;;;;;;;9.05;73.33;93624.31;5087925;28;20039;-45
2021/06/06 03:31:51;;;;;;;4.55;2.92;;;;;;;9.27;73.21;93625.13;5076176;28;20107;-45
2021/06/06 03:34:17;;;;;;;3.97;2.50;;;;;;;9.42;72.99;93625.25;5067832;28;20028;-43
2021/06/06 03:36:44;;;;;;;3.22;2.35;;;;;;;9.24;73.56;93623.44;5073127;28;20028;-47
2021/06/06 03:39:17;;;;;;;4.70;3.03;;;;;;;9.19;73.44;93611.25;5071719;28;20093;-43
2021/06/06 03:41:44;;;;;;;4.43;2.92;;;;;;;9.32;73.06;93615.97;5073342;28;20024;-47
2021/06/06 03:44:10;;;;;;;2.60;2.22;;;;;;;9.29;73.25;93609.50;5093116;28;20032;-46
2021/06/06 03:46:37;;;;;;;3.50;2.65;;;;;;;9.32;73.61;93615.97;5093449;28;20039;-43
2021/06/06 03:49:04;;;;;;;2.85;2.28;;;;;;;9.54;72.98;93613.44;5093532;28;20024;-44
2021/06/06 03:51:30;;;;;;;2.13;1.92;;;;;;;9.66;72.18;93614.63;5093330;28;20028;-44
2021/06/06 03:53:56;;;;;;;3.25;2.92;;;;;;;9.65;73.50;93618.69;5092667;28;20055;-46
2021/06/06 03:56:22;;;;;;;2.70;2.50;;;;;;;9.69;73.04;93610.06;5093189;28;20026;-45
2021/06/06 03:58:48;;;;;;;3.47;3.00;;;;;;;9.63;73.82;93603.94;5093097;28;20028;-43
2021/06/06 04:01:14;;;;;;;2.60;2.35;;;;;;;9.80;73.43;93618.06;5092770;28;20028;-45
2021/06/06 04:03:39;;;;;;;2.38;2.10;;;;;;;9.64;74.77;93619.19;5093310;28;20048;-43
2021/06/06 04:06:06;;;;;;;3.28;2.35;;;;;;;9.73;74.77;93621.47;5092749;28;20058;-44
2021/06/06 04:08:32;;;;;;;14.25;2.78;;;;;;;9.72;75.08;93622.78;5092721;28;20654;-45
2021/06/06 04:10:58;;;;;;;3.00;2.70;;;;;;;9.67;75.95;93615.38;5093007;28;20028;-44
2021/06/06 04:13:24;;;;;;;2.47;2.13;;;;;;;9.86;75.38;93616.63;5092640;28;20035;-44
2021/06/06 04:15:50;;;;;;;2.70;2.28;;;;;;;9.91;75.24;93615.03;5092785;28;20545;-44
2021/06/06 04:18:24;;;;;;;2.53;2.22;;;;;;;9.97;75.72;93614.88;5091938;28;20048;-44
2021/06/06 04:20:52;;;;;;;1.98;1.73;;;;;;;10.11;75.21;93614.28;5092390;28;20074;-43
2021/06/06 04:23:18;;;;;;;1.48;1.38;;;;;;;10.24;75.28;93622.47;5092338;28;20406;-43
2021/06/06 04:25:44;;;;;;;3.88;2.75;;;;;;;10.43;74.92;93614.66;5092391;28;20019;-48
2021/06/06 04:28:10;;;;;;;2.67;2.00;;;;;;;10.41;75.42;93616.47;5092455;28;20038;-45
2021/06/06 04:30:36;;;;;;;3.65;2.60;;;;;;;10.47;75.69;93617.81;5092230;28;20024;-45
2021/06/06 04:33:07;;;;;;;2.45;1.98;;;;;;;10.46;76.43;93608.03;5092233;28;20024;-48
2021/06/06 04:35:33;;;;;;;3.60;2.55;;;;;;;10.58;76.77;93617.50;5092381;28;20104;-46
2021/06/06 04:37:58;;;;;;;2.95;2.55;;;;;;;10.72;76.85;93623.63;5091371;28;20040;-43
2021/06/06 04:40:24;;;;;;;3.75;2.67;;;;;;;10.76;76.92;93631.56;5071742;28;20541;-43
2021/06/06 04:42:49;;;;;;;5.15;2.60;;;;;;;10.66;77.36;93603.72;5072202;28;20647;-44
2021/06/06 04:45:15;;;;;;;6.05;3.60;;;;;;;10.94;76.49;93620.22;5071796;28;20032;-43
2021/06/06 04:47:42;;;;;;;6.00;3.72;;;;;;;11.11;76.31;93614.22;5070754;28;20107;-45
2021/06/06 04:50:09;;;;;;;6.97;4.18;;;;;;;11.12;76.19;93619.19;5071744;28;20078;-45
2021/06/06 04:52:38;;;;;;;3.55;3.25;;;;;;;11.28;75.86;93611.69;5071541;28;20052;-43
2021/06/06 04:55:07;;;;;;;5.05;2.17;;;;;;;11.40;76.10;93610.78;5071516;28;20056;-43
2021/06/06 04:57:33;;;;;;;7.60;2.42;;;;;;;11.46;75.92;93621.66;5071681;28;20139;-41
2021/06/06 04:59:58;;;;;;;3.28;2.45;;;;;;;11.51;75.76;93615.22;5071576;28;20488;-41
2021/06/06 05:02:24;;;;;;;2.20;2.05;;;;;;;11.65;76.20;93624.09;5071398;28;20059;-44
2021/06/06 05:04:49;;;;;;;2.47;2.28;;;;;;;11.74;76.24;93620.78;5071437;28;20054;-42
2021/06/06 05:07:14;;;;;;;3.50;2.58;;;;;;;11.81;75.77;93618.03;5071341;28;20028;-44
2021/06/06 05:09:40;;;;;;;3.45;2.58;;;;;;;11.91;75.62;93621.00;5070274;28;20031;-43
2021/06/06 05:12:06;;;;;;;4.47;2.70;;;;;;;12.04;75.53;93623.59;5071346;28;20028;-42
2021/06/06 05:14:31;;;;;;;4.10;2.60;;;;;;;12.11;75.15;93626.34;5071085;28;20024;-43
2021/06/06 05:16:57;;;;;;;3.70;2.72;;;;;;;12.20;75.21;93627.81;5071336;28;20028;-42
2021/06/06 05:19:23;;;;;;;3.30;2.20;;;;;;;12.27;75.68;93613.22;5071032;28;20045;-44
2021/06/06 05:21:48;;;;;;;3.22;2.70;;;;;;;12.38;75.14;93620.41;5071476;28;20492;-42
2021/06/06 05:24:14;;;;;;;4.43;3.38;;;;;;;12.48;75.08;93619.28;5070970;28;20028;-44
2021/06/06 05:26:39;;;;;;;7.03;3.63;;;;;;;12.56;75.34;93619.97;5070972;28;20020;-47
2021/06/06 05:29:05;;;;;;;4.72;3.03;;;;;;;12.71;75.72;93619.22;5070899;28;20028;-43
2021/06/06 05:31:31;;;;;;;7.05;2.67;;;;;;;12.80;76.04;93613.81;5080011;28;20032;-45
2021/06/06 05:33:57;;;;;;;5.15;3.28;;;;;;;12.92;75.42;93619.69;5090848;28;20023;-48
2021/06/06 05:36:22;;;;;;;3.20;2.45;;;;;;;12.97;75.41;93616.00;5090515;28;20148;-48
2021/06/06 05:38:48;;;;;;;3.22;2.42;;;;;;;12.88;74.67;93616.56;5090673;28;20111;-45
2021/06/06 05:41:13;;;;;;;2.00;1.80;;;;;;;12.92;76.17;93608.63;5090356;28;20103;-49
2021/06/06 05:43:39;;;;;;;2.58;2.30;;;;;;;12.93;75.65;93612.84;5090193;28;20024;-49
2021/06/06 05:46:07;;;;;;;2.47;2.08;;;;;;;13.00;75.01;93608.56;5090213;28;20026;-50
2021/06/06 05:48:33;;;;;;;2.83;2.40;;;;;;;13.10;74.04;93615.03;5087757;28;20542;-47
2021/06/06 05:51:02;;;;;;;3.00;1.75;;;;;;;13.28;74.09;93609.03;5090541;28;20095;-53
2021/06/06 05:53:28;;;;;;;;;;;;;;;13.40;71.48;93610.09;5091164;28;20505;-48
2021/06/06 05:55:54;;;;;;;2.28;1.95;;;;;;;13.53;71.92;93612.59;5090350;28;19911;-47
2021/06/06 05:58:20;;;;;;;1.80;1.58;;;;;;;13.69;71.81;93605.63;5088950;28;20650;-49
2021/06/06 06:00:47;;;;;;;1.85;1.73;;;;;;;13.81;71.24;93613.50;5090445;28;20024;-43
2021/06/06 06:03:13;;;;;;;3.25;2.20;;;;;;;13.89;71.63;93608.63;5090718;28;20020;-44
2021/06/06 06:05:38;;;;;;;1.85;1.67;;;;;;;14.07;72.20;93610.16;5090796;28;20122;-45
2021/06/06 06:08:20;;;;;;;2.33;2.13;;;;;;;14.20;71.93;93612.66;5090285;28;20111;-45
2021/06/06 06:10:47;;;;;;;3.60;2.45;;;;;;;14.37;70.94;93612.69;5090366;28;20081;-43
2021/06/06 06:13:13;;;;;;;2.80;1.88;;;;;;;14.47;71.23;93607.25;5089009;28;20165;-45
2021/06/06 06:15:39;;;;;;;2.55;1.85;;;;;;;14.56;70.07;93610.09;5073200;28;20021;-45
2021/06/06 06:18:05;;;;;;;4.35;3.10;;;;;;;14.79;69.36;93616.16;5069900;28;20538;-46
2021/06/06 06:20:30;;;;;;;3.35;2.20;;;;;;;14.86;68.22;93611.81;5069772;28;20554;-47
2021/06/06 06:22:56;;;;;;;3.65;2.13;;;;;;;14.98;68.81;93616.34;5069886;28;20020;-45
2021/06/06 06:25:22;;;;;;;3.92;2.45;;;;;;;15.11;68.58;93624.34;5084045;28;20505;-46
2021/06/06 06:27:48;;;;;;;2.33;1.92;;;;;;;15.31;68.59;93616.13;5089990;28;20490;-45
2021/06/06 06:30:18;;;;;;;5.20;2.53;;;;;;;15.42;65.73;93623.97;5089798;28;20077;-44
2021/06/06 06:32:44;;;;;;;2.58;2.25;;;;;;;15.63;64.15;93613.84;5088922;28;20031;-49
2021/06/06 06:35:09;;;;;;;2.55;2.35;;;;;;;15.69;65.12;93621.94;5089794;28;20465;-45
2021/06/06 06:37:35;;;;;;;2.80;2.47;;;;;;;15.71;64.63;93619.31;5090032;28;20138;-49
2021/06/06 06:40:01;;;;;;;2.08;1.83;;;;;;;15.78;65.64;93619.22;5089622;28;20498;-48
2021/06/06 06:42:27;;;;;;;1.95;1.85;;;;;;;15.86;66.19;93597.56;5090138;28;20023;-46
2021/06/06 06:44:52;;;;;;;3.72;3.38;;;;;;;16.06;66.18;93615.06;5089957;28;20139;-48
2021/06/06 06:47:18;;;;;;;2.80;2.60;;;;;;;16.13;65.73;93624.63;5089664;28;20046;-47
2021/06/06 06:49:43;;;;;;;6.28;2.60;;;;;;;16.21;65.00;93628.00;5079774;28;20094;-50
2021/06/06 06:52:10;;;;;;;5.40;2.47;;;;;;;16.28;63.71;93610.44;5069513;28;20046;-46
2021/06/06 06:54:35;;;;;;;3.17;2.05;;;;;;;16.48;64.42;93609.19;5069334;28;20427;-51
2021/06/06 06:57:01;;;;;;;2.15;1.95;;;;;;;16.72;64.40;93607.50;5087278;28;20058;-46
2021/06/06 06:59:29;;;;;;;2.42;2.15;;;;;;;16.82;63.68;93602.66;5089634;28;20483;-45
2021/06/06 07:01:59;;;;;;;3.90;2.10;;;;;;;17.04;59.71;93601.47;5088055;28;20027;-46
2021/06/06 07:04:25;;;;;;;2.60;1.92;;;;;;;17.23;59.71;93596.63;5089207;28;20032;-46
2021/06/06 07:06:55;;;;;;;1.60;1.50;;;;;;;17.36;59.97;93598.97;5089154;28;20020;-48
2021/06/06 07:09:22;;;;;;;2.00;1.77;;;;;;;17.53;60.03;93586.91;5088552;28;20107;-49
2021/06/06 07:11:48;;;;;;;3.50;2.40;;;;;;;17.75;58.86;93602.44;5089001;28;20016;-48
2021/06/06 07:14:13;;;;;;;8.43;2.08;;;;;;;18.13;59.61;93598.75;5088707;28;20023;-46
2021/06/06 07:16:39;;;;;;;1.90;1.73;;;;;;;18.69;56.90;93602.59;5088829;28;20028;-49
2021/06/06 07:19:06;;;;;;;4.55;2.45;;;;;;;19.53;53.72;93596.19;5085770;28;20076;-49
2021/06/06 07:21:33;;;;;;;1.70;1.60;;;;;;;20.06;51.04;93596.66;5088974;28;20130;-50
2021/06/06 07:23:58;;;;;;;1.45;1.35;;;;;;;20.49;50.87;93597.19;5088435;28;20085;-51
2021/06/06 07:26:40;;;;;;;1.73;1.63;;;;;;;21.36;51.06;93591.75;5085379;28;20028;-45
2021/06/06 07:29:09;;;;;;;3.47;2.10;;;;;;;22.47;45.33;93592.94;5088607;28;20036;-48
2021/06/06 07:31:34;;;;;;;;;;;;;;;23.67;43.49;93592.69;5087107;28;20209;-46
2021/06/06 07:34:00;;;;;;;2.70;1.67;;;;;;;25.12;42.04;93587.28;5087883;28;19999;-48
2021/06/06 07:36:25;;;;;;;2.17;1.60;;;;;;;26.22;37.76;93588.25;5088022;28;20032;-48
2021/06/06 07:38:51;;;;;;;1.63;1.40;;;;;;;27.27;36.29;93589.97;5086971;28;20475;-46
2021/06/06 07:41:18;;;;;;;3.30;1.80;;;;;;;28.14;35.50;93584.34;5087003;28;20030;-46
2021/06/06 07:43:44;;;;;;;2.13;1.80;;;;;;;28.80;32.25;93591.31;5086728;28;20032;-48
2021/06/06 07:46:10;;;;;;;4.25;2.08;;;;;;;30.08;31.67;93587.56;5086503;28;20619;-47
2021/06/06 07:48:35;;;;;;;2.00;1.65;;;;;;;30.96;30.56;93586.00;5086580;28;20471;-50
2021/06/06 07:51:01;;;;;;;1.73;1.63;;;;;;;31.74;28.21;93590.34;5086522;28;20102;-48
2021/06/06 07:53:27;;;;;;;4.63;1.50;;;;;;;32.42;27.22;93567.84;5086388;28;20764;-47
2021/06/06 07:55:54;;;;;;;1.40;1.30;;;;;;;33.14;25.64;93585.31;5086563;28;20668;-47
2021/06/06 07:58:25;;;;;;;1.80;1.48;;;;;;;33.18;24.91;93584.66;5086294;28;20024;-46
2021/06/06 08:00:50;;;;;;;2.38;1.50;;;;;;;32.73;25.83;93586.19;5086234;28;20039;-48
2021/06/06 08:03:17;;;;;;;1.48;1.38;;;;;;;33.69;26.20;93580.19;5086485;28;20532;-47
2021/06/06 08:05:43;;;;;;;1.58;1.35;;;;;;;33.99;23.69;93586.19;5088197;28;20689;-47
2021/06/06 08:08:10;;;;;;;1.70;1.60;;;;;;;34.48;23.67;93575.84;5083059;28;20035;-47
2021/06/06 08:10:38;;;;;;;2.05;1.92;;;;;;;34.87;22.77;93580.41;5066970;28;20025;-46
2021/06/06 08:13:04;;;;;;;1.60;1.50;;;;;;;35.06;22.98;93579.06;5066663;28;20036;-45
2021/06/06 08:15:30;;;;;;;2.25;1.80;;;;;;;35.76;22.69;93585.03;5066486;28;20548;-47
2021/06/06 08:17:56;;;;;;;2.28;1.88;;;;;;;36.22;21.78;93586.53;5086705;28;20151;-48
2021/06/06 08:20:28;;;;;;;2.08;1.65;;;;;;;36.31;21.40;93590.84;5087233;28;20427;-48
2021/06/06 08:22:54;;;;;;;1.90;1.50;;;;;;;36.56;21.30;93589.41;5089715;28;20028;-46
2021/06/06 08:25:20;;;;;;;2.55;2.20;;;;;;;36.78;20.81;93580.72;5087532;28;20421;-50
2021/06/06 08:27:48;;;;;;;3.92;2.05;;;;;;;36.69;21.85;93584.38;5091193;28;20097;-48
2021/06/06 08:30:21;;;;;;;3.00;2.63;;;;;;;36.96;20.97;93586.47;5091309;28;20024;-48
2021/06/06 08:32:48;;;;;;;2.10;1.90;;;;;;;37.41;20.67;93581.28;5070324;28;20507;-45
2021/06/06 08:35:13;;;;;;;1.90;1.70;;;;;;;37.46;20.31;93581.97;5071018;28;20055;-46
2021/06/06 08:37:39;;;;;;;2.08;1.60;;;;;;;37.12;20.27;93583.53;5072262;28;20114;-46
2021/06/06 08:40:10;;;;;;;2.15;1.75;;;;;;;37.07;20.02;93572.75;5070996;28;20024;-51
2021/06/06 08:42:40;;;;;;;4.00;1.98;;;;;;;36.81;19.95;93575.69;5072148;28;20647;-47
2021/06/06 08:45:32;;;;;;;3.88;2.10;;;;;;;36.35;20.89;93571.44;5071152;28;20463;-48
2021/06/06 08:47:59;;;;;;;2.92;1.70;;;;;;;36.96;20.94;93580.00;5090429;28;20518;-49
2021/06/06 08:50:32;;;;;;;2.20;2.00;;;;;;;36.58;21.35;93566.38;5087367;28;20470;-45
2021/06/06 08:53:32;;;;;;;2.85;1.80;;;;;;;37.17;20.67;93570.56;5085175;28;20035;-46
2021/06/06 08:56:17;;;;;;;2.10;1.90;;;;;;;37.51;20.08;93566.81;5055717;28;20510;-47
2021/06/06 08:58:57;;;;;;;1.50;1.40;;;;;;;37.48;19.27;93556.75;5087501;28;20020;-48
2021/06/06 09:01:41;;;;;;;6.72;2.47;;;;;;;37.20;20.15;93562.63;5086243;28;20042;-46
2021/06/06 09:04:12;;;;;;;3.15;1.70;;;;;;;36.56;21.48;93557.06;5088012;28;20016;-46
2021/06/06 09:07:19;;;;;;;2.25;1.90;;;;;;;36.57;20.82;93555.59;5086674;28;20032;-47
2021/06/06 09:09:49;;;;;;;2.15;1.95;;;;;;;36.74;21.23;93557.72;5077111;28;20028;-48
2021/06/06 09:12:19;;;;;;;1.85;1.73;;;;;;;36.24;20.51;93555.63;5079123;28;20032;-49
2021/06/06 09:14:46;;;;;;;4.20;2.63;;;;;;;36.53;21.23;93555.63;5088711;28;20459;-46
2021/06/06 09:17:14;;;;;;;3.70;2.10;;;;;;;36.73;21.08;93553.41;5090870;28;20074;-48
2021/06/06 09:19:44;;;;;;;2.75;1.60;;;;;;;37.07;20.43;93550.44;5091049;28;20541;-48
2021/06/06 09:22:10;;;;;;;4.93;1.58;;;;;;;36.92;20.85;93551.94;5091744;28;20039;-47
2021/06/06 09:24:44;;;;;;;1.58;1.48;;;;;;;36.58;19.71;93545.53;5091310;28;20044;-47
2021/06/06 09:27:15;;;;;;;2.20;2.00;;;;;;;37.07;21.17;93556.22;5091392;28;20418;-47
2021/06/06 09:29:41;;;;;;;2.25;1.75;;;;;;;36.92;20.13;93554.81;5087338;28;20032;-47
2021/06/06 09:32:12;;;;;;;1.70;1.60;;;;;;;37.04;20.06;93557.66;5074268;28;20025;-46
2021/06/06 09:34:37;;;;;;;14.13;2.63;;;;;;;37.58;20.17;93547.31;5069548;28;20089;-47
2021/06/06 09:37:14;;;;;;;2.70;2.08;;;;;;;37.94;20.13;93535.59;5068395;28;20028;-47
2021/06/06 09:39:51;;;;;;;2.88;2.50;;;;;;;38.29;18.25;93550.47;5068223;28;20050;-47
2021/06/06 09:42:36;;;;;;;2.58;1.50;;;;;;;38.94;17.78;93539.00;5067845;28;20024;-47
2021/06/06 09:45:11;;;;;;;4.18;1.92;;;;;;;37.88;18.51;93539.22;5081758;28;20578;-46
2021/06/06 09:47:37;;;;;;;5.60;2.58;;;;;;;36.01;21.01;93536.97;5090271;28;20096;-50
2021/06/06 09:50:11;;;;;;;1.92;1.80;;;;;;;34.78;22.52;93527.97;5087282;28;20487;-48
2021/06/06 09:52:45;;;;;;;2.20;2.03;;;;;;;34.13;23.41;93538.31;5072242;28;20123;-48
2021/06/06 09:55:34;;;;;;;2.35;2.15;;;;;;;33.12;24.69;93536.63;5072252;28;20043;-48
2021/06/06 09:58:18;;;;;;;2.72;1.98;;;;;;;31.82;25.75;93533.38;5085464;28;20024;-47
2021/06/06 10:00:49;;;;;;;4.88;2.45;;;;;;;30.89;27.08;93536.66;5087362;28;20024;-45
2021/06/06 10:03:31;;;;;;;2.45;2.25;;;;;;;30.05;28.22;93537.66;5071455;28;20028;-47
2021/06/06 10:06:23;;;;;;;2.90;2.00;;;;;;;29.45;29.69;93534.81;5077652;28;20090;-47
2021/06/06 10:09:07;;;;;;;2.85;2.30;;;;;;;29.95;28.74;93529.63;5088559;28;20023;-44
2021/06/06 10:11:39;;;;;;;3.60;2.80;;;;;;;31.45;28.11;93522.06;5089363;28;20439;-47
2021/06/06 10:14:06;;;;;;;4.68;2.45;;;;;;;32.17;27.31;93520.34;5087315;28;20529;-46
2021/06/06 10:16:36;;;;;;;2.42;2.22;;;;;;;32.28;26.71;93513.38;5087704;28;20104;-45
2021/06/06 10:19:08;;;;;;;2.42;2.03;;;;;;;32.65;26.17;93523.91;5088392;28;20097;-45
2021/06/06 10:21:35;;;;;;;4.03;2.75;;;;;;;31.75;27.10;93520.41;5089192;28;20455;-45
2021/06/06 10:24:10;;;;;;;3.50;2.97;;;;;;;30.76;29.33;93517.13;5090144;28;20039;-47
2021/06/06 10:26:36;;;;;;;3.60;3.30;;;;;;;30.07;31.26;93512.81;5088475;28;20028;-47
2021/06/06 10:29:13;;;;;;;13.70;3.05;;;;;;;29.35;32.10;93520.31;5088097;28;20077;-49
2021/06/06 10:31:42;;;;;;;2.67;2.47;;;;;;;29.07;31.55;93514.59;5074484;28;20024;-49
2021/06/06 10:34:35;;;;;;;2.75;2.47;;;;;;;29.59;29.97;93503.84;5089826;28;20032;-46
2021/06/06 10:37:01;;;;;;;3.90;2.17;;;;;;;29.56;31.61;93508.03;5070143;28;20032;-45
2021/06/06 10:39:29;;;;;;;2.95;2.70;;;;;;;29.24;31.85;93504.38;5069213;28;20159;-49
2021/06/06 10:42:08;;;;;;;7.20;2.58;;;;;;;28.93;32.74;93497.19;5068810;28;20107;-49
2021/06/06 10:45:06;;;;;;;4.57;2.63;;;;;;;28.82;32.37;93512.50;5068310;28;20036;-45
2021/06/06 10:48:21;;;;;;;3.07;2.77;;;;;;;28.36;33.56;93509.06;5070386;28;20028;-45
2021/06/06 10:50:49;;;;;;;3.90;3.47;;;;;;;28.01;34.11;93500.91;5081498;28;20458;-47
2021/06/06 10:53:17;;;;;;;2.85;2.65;;;;;;;27.71;34.48;93499.97;5090186;28;20051;-45
2021/06/06 10:56:14;;;;;;;8.30;3.15;;;;;;;27.66;35.59;93499.13;5090202;28;20102;-45
2021/06/06 10:58:48;;;;;;;3.03;2.65;;;;;;;27.71;35.57;93505.63;5057593;28;20523;-47
2021/06/06 11:01:19;;;;;;;3.70;2.83;;;;;;;27.73;35.43;93503.59;5086214;28;20056;-46
2021/06/06 11:03:48;;;;;;;3.15;2.78;;;;;;;27.62;36.00;93510.34;5088097;28;20082;-47
2021/06/06 11:06:31;;;;;;;3.72;3.13;;;;;;;27.53;35.55;93505.06;5086060;28;20024;-47
2021/06/06 11:08:57;;;;;;;4.97;2.35;;;;;;;27.44;35.27;93501.25;5086137;28;20047;-44
2021/06/06 11:11:36;;;;;;;2.63;2.42;;;;;;;27.38;36.81;93503.16;5087823;28;20100;-49
2021/06/06 11:14:08;;;;;;;3.88;2.83;;;;;;;27.18;36.77;93503.19;5084477;28;20028;-48
2021/06/06 11:16:38;;;;;;;4.10;2.92;;;;;;;27.37;36.55;93499.63;5084223;28;20043;-45
2021/06/06 11:19:28;;;;;;;2.42;2.08;;;;;;;27.84;35.35;93493.28;5087422;28;20542;-47
2021/06/06 11:22:17;;;;;;;2.30;2.10;;;;;;;27.87;33.66;93499.75;5087847;28;20379;-45
2021/06/06 11:24:43;;;;;;;5.50;4.05;;;;;;;27.79;33.56;93500.22;5082973;28;20020;-45
2021/06/06 11:27:11;;;;;;;17.70;5.68;;;;;;;27.51;34.12;93502.16;5088184;28;20058;-49
2021/06/06 11:29:51;;;;;;;2.60;2.40;;;;;;;26.96;34.86;93499.63;5088660;28;20077;-45
2021/06/06 11:32:23;;;;;;;3.00;2.47;;;;;;;26.37;36.06;93488.31;5088669;28;20032;-47
2021/06/06 11:35:09;;;;;;;3.40;2.53;;;;;;;25.95;38.04;93495.22;5088015;28;20114;-45
2021/06/06 11:37:40;;;;;;;6.85;2.60;;;;;;;25.75;38.66;93489.50;5088290;28;20567;-46
2021/06/06 11:40:35;;;;;;;2.83;2.45;;;;;;;25.65;39.29;93491.22;5088260;28;20043;-46
2021/06/06 11:43:11;;;;;;;4.40;3.15;;;;;;;25.54;40.20;93488.00;5089408;28;20035;-48
2021/06/06 11:45:39;;;;;;;4.35;3.47;;;;;;;25.55;41.75;93500.06;5088399;28;20058;-44
2021/06/06 11:48:12;;;;;;;5.57;3.38;;;;;;;25.44;42.64;93501.03;5087914;28;20496;-44
2021/06/06 11:50:48;;;;;;;3.85;2.95;;;;;;;25.38;43.10;93497.94;5087507;28;20020;-44